Time,TemperatureF,DewpointF,PressureIn,WindDirection,WindDirectionDegrees,WindSpeedMPH,WindSpeedGustMPH,Humidity,HourlyPrecipIn,Conditions,Clouds,dailyrainin,SoftwareType,DateUTC
2013-03-03 00:00:00,27.0,16.4,27.99,NW,315,6.0,16.0,64,0.00,,,0.00,Weather View 32 v70,2013-03-03 05:00:00,
2013-03-03 00:05:00,27.0,16.1,27.99,North,360,1.0,16.0,63,0.00,,,0.00,Weather View 32 v70,2013-03-03 05:05:00,
2013-03-03 00:10:00,26.7,16.2,27.99,NW,315,0.0,16.0,64,0.00,,,0.00,Weather View 32 v70,2013-03-03 05:10:00,
2013-03-03 00:15:00,26.3,16.5,27.99,WNW,292,0.0,16.0,66,0.00,,,0.00,Weather View 32 v70,2013-03-03 05:15:00,
2013-03-03 00:20:00,25.9,16.1,28.00,WNW,292,0.0,16.0,66,0.00,,,0.00,Weather View 32 v70,2013-03-03 05:20:00,
2013-03-03 00:25:00,25.3,15.9,28.00,WNW,292,0.0,16.0,67,0.00,,,0.00,Weather View 32 v70,2013-03-03 05:25:00,
2013-03-03 00:30:00,24.9,15.8,28.00,WNW,292,1.0,12.0,68,0.00,,,0.00,Weather View 32 v70,2013-03-03 05:30:00,
2013-03-03 00:35:00,24.8,15.7,28.00,East,90,2.0,12.0,68,0.00,,,0.00,Weather View 32 v70,2013-03-03 05:35:00,
2013-03-03 00:40:00,24.7,15.3,28.00,NNW,337,1.0,12.0,67,0.00,,,0.00,Weather View 32 v70,2013-03-03 05:40:00,
2013-03-03 00:45:00,25.0,15.6,28.00,North,360,4.0,12.0,67,0.00,,,0.00,Weather View 32 v70,2013-03-03 05:45:00,
2013-03-03 00:50:00,25.1,16.0,28.00,North,360,5.0,12.0,68,0.00,,,0.00,Weather View 32 v70,2013-03-03 05:50:00,
2013-03-03 00:55:00,24.9,15.8,28.00,NW,315,4.0,12.0,68,0.00,,,0.00,Weather View 32 v70,2013-03-03 05:55:00,
2013-03-03 01:00:00,25.0,15.6,28.00,North,360,3.0,10.0,67,0.00,,,0.00,Weather View 32 v70,2013-03-03 06:00:00,
2013-03-03 01:05:00,24.9,15.1,28.00,NW,315,5.0,9.0,66,0.00,,,0.00,Weather View 32 v70,2013-03-03 06:05:00,
2013-03-03 01:10:00,24.9,15.5,28.00,NW,315,2.0,9.0,67,0.00,,,0.00,Weather View 32 v70,2013-03-03 06:10:00,
2013-03-03 01:16:00,24.8,15.1,28.00,NW,315,0.0,9.0,66,0.00,,,0.00,Weather View 32 v70,2013-03-03 06:16:00,
2013-03-03 01:21:00,24.6,14.5,28.00,NW,315,0.0,9.0,65,0.00,,,0.00,Weather View 32 v70,2013-03-03 06:21:00,
2013-03-03 01:26:00,24.4,15.0,28.00,WNW,292,2.0,9.0,67,0.00,,,0.00,Weather View 32 v70,2013-03-03 06:26:00,
2013-03-03 01:31:00,24.1,14.7,28.00,WNW,292,0.0,9.0,67,0.00,,,0.00,Weather View 32 v70,2013-03-03 06:31:00,
2013-03-03 01:36:00,23.7,15.0,28.00,NW,315,0.0,9.0,69,0.00,,,0.00,Weather View 32 v70,2013-03-03 06:36:00,
2013-03-03 01:41:00,23.4,14.4,28.00,NW,315,2.0,9.0,68,0.00,,,0.00,Weather View 32 v70,2013-03-03 06:41:00,
2013-03-03 01:46:00,23.6,14.6,28.00,NW,315,0.0,8.0,68,0.00,,,0.00,Weather View 32 v70,2013-03-03 06:46:00,
2013-03-03 01:51:00,23.7,14.3,27.99,NW,315,2.0,8.0,67,0.00,,,0.00,Weather View 32 v70,2013-03-03 06:51:00,
2013-03-03 01:56:00,24.0,14.6,27.99,NW,315,2.0,8.0,67,0.00,,,0.00,Weather View 32 v70,2013-03-03 06:56:00,
2013-03-03 02:01:00,23.9,14.5,27.99,NNW,337,0.0,8.0,67,0.00,,,0.00,Weather View 32 v70,2013-03-03 07:01:00,
2013-03-03 02:06:00,24.0,14.6,27.99,North,360,0.0,8.0,67,0.00,,,0.00,Weather View 32 v70,2013-03-03 07:06:00,
2013-03-03 02:11:00,24.3,14.6,27.99,NW,315,6.0,9.0,66,0.00,,,0.00,Weather View 32 v70,2013-03-03 07:11:00,
2013-03-03 02:16:00,24.7,14.6,27.99,NW,315,1.0,9.0,65,0.00,,,0.00,Weather View 32 v70,2013-03-03 07:16:00,
2013-03-03 02:21:00,24.6,14.5,27.99,North,360,6.0,9.0,65,0.00,,,0.00,Weather View 32 v70,2013-03-03 07:21:00,
2013-03-03 02:26:00,24.6,14.5,27.99,NW,315,4.0,9.0,65,0.00,,,0.00,Weather View 32 v70,2013-03-03 07:26:00,
2013-03-03 02:31:00,24.9,14.1,27.99,NNW,337,2.0,9.0,63,0.00,,,0.00,Weather View 32 v70,2013-03-03 07:31:00,
2013-03-03 02:36:00,24.8,14.4,27.99,NNW,337,2.0,9.0,64,0.00,,,0.00,Weather View 32 v70,2013-03-03 07:36:00,
2013-03-03 02:41:00,24.3,14.6,27.99,NNW,337,0.0,9.0,66,0.00,,,0.00,Weather View 32 v70,2013-03-03 07:41:00,
2013-03-03 02:46:00,23.9,14.5,27.99,NNW,337,0.0,9.0,67,0.00,,,0.00,Weather View 32 v70,2013-03-03 07:46:00,
2013-03-03 02:51:00,23.7,14.3,27.99,NNW,337,0.0,9.0,67,0.00,,,0.00,Weather View 32 v70,2013-03-03 07:51:00,
2013-03-03 02:56:00,23.5,14.2,27.98,NNW,337,0.0,9.0,67,0.00,,,0.00,Weather View 32 v70,2013-03-03 07:56:00,
2013-03-03 03:01:00,23.5,14.8,27.98,NNW,337,0.0,9.0,69,0.00,,,0.00,Weather View 32 v70,2013-03-03 08:01:00,
2013-03-03 03:06:00,23.3,14.3,27.98,NNW,337,0.0,9.0,68,0.00,,,0.00,Weather View 32 v70,2013-03-03 08:06:00,
2013-03-03 03:11:00,22.9,14.9,27.98,NW,315,2.0,9.0,71,0.00,,,0.00,Weather View 32 v70,2013-03-03 08:11:00,
2013-03-03 03:16:00,22.5,14.8,27.98,NW,315,0.0,8.0,72,0.00,,,0.00,Weather View 32 v70,2013-03-03 08:16:00,
2013-03-03 03:21:00,22.2,14.6,27.98,NW,315,0.0,8.0,72,0.00,,,0.00,Weather View 32 v70,2013-03-03 08:21:00,
2013-03-03 03:26:00,22.2,14.2,27.98,NW,315,0.0,7.0,71,0.00,,,0.00,Weather View 32 v70,2013-03-03 08:26:00,
2013-03-03 03:31:00,22.2,14.2,27.98,NW,315,2.0,4.0,71,0.00,,,0.00,Weather View 32 v70,2013-03-03 08:31:00,
2013-03-03 03:36:00,21.9,14.9,27.97,NW,315,0.0,3.0,74,0.00,,,0.00,Weather View 32 v70,2013-03-03 08:36:00,
2013-03-03 03:41:00,21.9,15.2,27.97,NW,315,0.0,3.0,75,0.00,,,0.00,Weather View 32 v70,2013-03-03 08:41:00,
2013-03-03 03:46:00,21.6,15.2,27.97,NW,315,0.0,3.0,76,0.00,,,0.00,Weather View 32 v70,2013-03-03 08:46:00,
2013-03-03 03:51:00,21.5,14.5,27.97,NW,315,0.0,3.0,74,0.00,,,0.00,Weather View 32 v70,2013-03-03 08:51:00,
2013-03-03 03:56:00,21.5,14.2,27.97,NW,315,0.0,3.0,73,0.00,,,0.00,Weather View 32 v70,2013-03-03 08:56:00,
2013-03-03 04:01:00,21.4,14.7,27.97,NNW,337,0.0,3.0,75,0.00,,,0.00,Weather View 32 v70,2013-03-03 09:01:00,
2013-03-03 04:06:00,21.7,14.4,27.97,North,360,0.0,4.0,73,0.00,,,0.00,Weather View 32 v70,2013-03-03 09:06:00,
2013-03-03 04:11:00,21.9,14.9,27.97,North,360,0.0,4.0,74,0.00,,,0.00,Weather View 32 v70,2013-03-03 09:11:00,
2013-03-03 04:16:00,21.9,15.2,27.98,North,360,1.0,4.0,75,0.00,,,0.00,Weather View 32 v70,2013-03-03 09:16:00,
2013-03-03 04:21:00,21.9,14.9,27.97,North,360,0.0,4.0,74,0.00,,,0.00,Weather View 32 v70,2013-03-03 09:21:00,
2013-03-03 04:26:00,21.6,14.6,27.98,North,360,0.0,4.0,74,0.00,,,0.00,Weather View 32 v70,2013-03-03 09:26:00,
2013-03-03 04:31:00,21.5,14.2,27.98,North,360,0.0,4.0,73,0.00,,,0.00,Weather View 32 v70,2013-03-03 09:31:00,
2013-03-03 04:36:00,21.9,14.9,27.97,SW,225,1.0,4.0,74,0.00,,,0.00,Weather View 32 v70,2013-03-03 09:36:00,
2013-03-03 04:41:00,22.5,14.2,27.98,South,180,2.0,4.0,70,0.00,,,0.00,Weather View 32 v70,2013-03-03 09:41:00,
2013-03-03 04:46:00,22.7,14.4,27.98,NW,315,1.0,4.0,70,0.00,,,0.00,Weather View 32 v70,2013-03-03 09:46:00,
2013-03-03 04:51:00,22.7,14.7,27.98,NW,315,1.0,4.0,71,0.00,,,0.00,Weather View 32 v70,2013-03-03 09:51:00,
2013-03-03 04:56:00,22.5,14.5,27.98,WNW,292,2.0,4.0,71,0.00,,,0.00,Weather View 32 v70,2013-03-03 09:56:00,
2013-03-03 05:01:00,22.3,14.3,27.98,NW,315,1.0,4.0,71,0.00,,,0.00,Weather View 32 v70,2013-03-03 10:01:00,
2013-03-03 05:06:00,22.4,14.4,27.98,NW,315,1.0,4.0,71,0.00,,,0.00,Weather View 32 v70,2013-03-03 10:06:00,
2013-03-03 05:11:00,22.5,14.5,27.98,NW,315,1.0,4.0,71,0.00,,,0.00,Weather View 32 v70,2013-03-03 10:11:00,
2013-03-03 05:16:00,22.2,14.6,27.98,NW,315,2.0,4.0,72,0.00,,,0.00,Weather View 32 v70,2013-03-03 10:16:00,
2013-03-03 05:21:00,21.9,14.3,27.98,WNW,292,6.0,6.0,72,0.00,,,0.00,Weather View 32 v70,2013-03-03 10:21:00,
2013-03-03 05:26:00,22.5,14.2,27.98,North,360,6.0,8.0,70,0.00,,,0.00,Weather View 32 v70,2013-03-03 10:26:00,
2013-03-03 05:31:00,23.0,14.3,27.98,NW,315,4.0,8.0,69,0.00,,,0.00,Weather View 32 v70,2013-03-03 10:31:00,
2013-03-03 05:36:00,23.2,14.2,27.98,NW,315,3.0,8.0,68,0.00,,,0.00,Weather View 32 v70,2013-03-03 10:36:00,
2013-03-03 05:41:00,23.3,14.3,27.98,NW,315,2.0,8.0,68,0.00,,,0.00,Weather View 32 v70,2013-03-03 10:41:00,
2013-03-03 05:46:00,23.3,14.3,27.98,North,360,3.0,8.0,68,0.00,,,0.00,Weather View 32 v70,2013-03-03 10:46:00,
2013-03-03 05:51:00,23.1,14.4,27.98,NNW,337,2.0,8.0,69,0.00,,,0.00,Weather View 32 v70,2013-03-03 10:51:00,
2013-03-03 05:56:00,23.1,14.1,27.98,NW,315,5.0,8.0,68,0.00,,,0.00,Weather View 32 v70,2013-03-03 10:56:00,
2013-03-03 06:01:00,23.3,14.0,27.99,NW,315,2.0,8.0,67,0.00,,,0.00,Weather View 32 v70,2013-03-03 11:01:00,
2013-03-03 06:06:00,23.3,14.3,27.99,WNW,292,2.0,8.0,68,0.00,,,0.00,Weather View 32 v70,2013-03-03 11:06:00,
2013-03-03 06:11:00,23.1,14.1,27.99,North,360,1.0,8.0,68,0.00,,,0.00,Weather View 32 v70,2013-03-03 11:11:00,
2013-03-03 06:16:00,22.9,13.9,27.99,NW,315,1.0,8.0,68,0.00,,,0.00,Weather View 32 v70,2013-03-03 11:16:00,
2013-03-03 06:21:00,22.6,14.3,27.99,North,360,4.0,8.0,70,0.00,,,0.00,Weather View 32 v70,2013-03-03 11:21:00,
2013-03-03 06:26:00,22.5,13.9,27.99,NW,315,3.0,8.0,69,0.00,,,0.00,Weather View 32 v70,2013-03-03 11:26:00,
2013-03-03 06:31:00,22.7,14.1,27.99,NW,315,4.0,7.0,69,0.00,,,0.00,Weather View 32 v70,2013-03-03 11:31:00,
2013-03-03 06:36:00,22.9,14.3,27.99,NNW,337,2.0,7.0,69,0.00,,,0.00,Weather View 32 v70,2013-03-03 11:36:00,
2013-03-03 06:41:00,22.9,14.3,27.99,NNW,337,1.0,7.0,69,0.00,,,0.00,Weather View 32 v70,2013-03-03 11:41:00,
2013-03-03 06:46:00,22.9,14.3,27.99,North,360,2.0,7.0,69,0.00,,,0.00,Weather View 32 v70,2013-03-03 11:46:00,
2013-03-03 06:51:00,22.7,14.7,27.99,WNW,292,2.0,7.0,71,0.00,,,0.00,Weather View 32 v70,2013-03-03 11:51:00,
2013-03-03 06:56:00,22.4,14.1,27.99,WNW,292,1.0,7.0,70,0.00,,,0.00,Weather View 32 v70,2013-03-03 11:56:00,
2013-03-03 07:01:00,22.3,14.3,27.99,NNW,337,3.0,7.0,71,0.00,,,0.00,Weather View 32 v70,2013-03-03 12:01:00,
2013-03-03 07:06:00,22.3,14.6,27.99,North,360,2.0,7.0,72,0.00,,,0.00,Weather View 32 v70,2013-03-03 12:06:00,
2013-03-03 07:11:00,22.6,14.6,27.99,NW,315,4.0,7.0,71,0.00,,,0.00,Weather View 32 v70,2013-03-03 12:11:00,
2013-03-03 07:16:00,23.3,14.6,27.99,NW,315,4.0,8.0,69,0.00,,,0.00,Weather View 32 v70,2013-03-03 12:16:00,
2013-03-03 07:21:00,23.5,15.2,27.99,NW,315,2.0,8.0,70,0.00,,,0.00,Weather View 32 v70,2013-03-03 12:21:00,
2013-03-03 07:26:00,23.9,15.5,28.00,NW,315,4.0,8.0,70,0.00,,,0.00,Weather View 32 v70,2013-03-03 12:26:00,
2013-03-03 07:31:00,24.7,18.2,28.00,NW,315,2.0,8.0,76,0.00,,,0.00,Weather View 32 v70,2013-03-03 12:31:00,
2013-03-03 07:36:00,25.3,16.9,28.00,NW,315,2.0,8.0,70,0.00,,,0.00,Weather View 32 v70,2013-03-03 12:36:00,
2013-03-03 07:41:00,26.1,18.9,28.01,NNW,337,2.0,8.0,74,0.00,,,0.00,Weather View 32 v70,2013-03-03 12:41:00,
2013-03-03 07:46:00,26.9,20.3,28.01,NNW,337,2.0,8.0,76,0.00,,,0.00,Weather View 32 v70,2013-03-03 12:46:00,
2013-03-03 07:51:00,27.2,18.7,28.00,WNW,292,2.0,8.0,70,0.00,,,0.00,Weather View 32 v70,2013-03-03 12:51:00,
2013-03-03 07:56:00,27.3,17.4,28.00,NNW,337,1.0,8.0,66,0.00,,,0.00,Weather View 32 v70,2013-03-03 12:56:00,
2013-03-03 08:01:00,27.0,17.5,28.00,West,270,5.0,9.0,67,0.00,,,0.00,Weather View 32 v70,2013-03-03 13:01:00,
2013-03-03 08:06:00,27.1,16.9,28.00,NNW,337,4.0,9.0,65,0.00,,,0.00,Weather View 32 v70,2013-03-03 13:06:00,
2013-03-03 08:11:00,27.2,17.7,28.00,NW,315,2.0,9.0,67,0.00,,,0.00,Weather View 32 v70,2013-03-03 13:11:00,
2013-03-03 08:16:00,27.5,19.3,28.00,West,270,0.0,9.0,71,0.00,,,0.00,Weather View 32 v70,2013-03-03 13:16:00,
2013-03-03 08:21:00,27.9,20.7,28.00,NNW,337,2.0,9.0,74,0.00,,,0.00,Weather View 32 v70,2013-03-03 13:21:00,
2013-03-03 08:27:00,28.8,18.2,28.01,SW,225,4.0,9.0,64,0.00,,,0.00,Weather View 32 v70,2013-03-03 13:27:00,
2013-03-03 08:32:00,27.7,16.4,28.01,SW,225,4.0,9.0,62,0.00,,,0.00,Weather View 32 v70,2013-03-03 13:32:00,
2013-03-03 08:37:00,27.6,17.0,28.01,West,270,14.0,14.0,64,0.00,,,0.00,Weather View 32 v70,2013-03-03 13:37:00,
2013-03-03 08:42:00,27.4,16.5,28.00,NW,315,4.0,14.0,63,0.00,,,0.00,Weather View 32 v70,2013-03-03 13:42:00,
2013-03-03 08:47:00,27.3,16.7,28.00,NW,315,7.0,14.0,64,0.00,,,0.00,Weather View 32 v70,2013-03-03 13:47:00,
2013-03-03 08:52:00,27.2,15.9,28.00,NW,315,5.0,14.0,62,0.00,,,0.00,Weather View 32 v70,2013-03-03 13:52:00,
2013-03-03 08:57:00,27.1,16.2,28.00,WNW,292,7.0,14.0,63,0.00,,,0.00,Weather View 32 v70,2013-03-03 13:57:00,
2013-03-03 09:02:00,27.3,16.7,28.00,NW,315,9.0,14.0,64,0.00,,,0.00,Weather View 32 v70,2013-03-03 14:02:00,
2013-03-03 09:07:00,27.7,16.0,28.00,West,270,6.0,14.0,61,0.00,,,0.00,Weather View 32 v70,2013-03-03 14:07:00,
2013-03-03 09:12:00,28.5,16.4,28.00,NW,315,9.0,16.0,60,0.00,,,0.00,Weather View 32 v70,2013-03-03 14:12:00,
2013-03-03 09:17:00,28.7,16.2,28.00,NW,315,12.0,16.0,59,0.00,,,0.00,Weather View 32 v70,2013-03-03 14:17:00,
2013-03-03 09:22:00,28.7,16.2,28.00,NW,315,6.0,16.0,59,0.00,,,0.00,Weather View 32 v70,2013-03-03 14:22:00,
2013-03-03 09:27:00,29.1,16.6,28.00,WNW,292,9.0,16.0,59,0.00,,,0.00,Weather View 32 v70,2013-03-03 14:27:00,
2013-03-03 09:32:00,29.9,16.5,28.01,NW,315,9.0,16.0,57,0.00,,,0.00,Weather View 32 v70,2013-03-03 14:32:00,
2013-03-03 09:37:00,30.6,17.6,28.01,WNW,292,14.0,16.0,58,0.00,,,0.00,Weather View 32 v70,2013-03-03 14:37:00,
2013-03-03 09:42:00,30.8,16.9,28.00,WNW,292,10.0,17.0,56,0.00,,,0.00,Weather View 32 v70,2013-03-03 14:42:00,
2013-03-03 09:47:00,31.1,18.0,28.01,NW,315,7.0,17.0,58,0.00,,,0.00,Weather View 32 v70,2013-03-03 14:47:00,
2013-03-03 09:52:00,31.2,17.3,28.01,NW,315,8.0,17.0,56,0.00,,,0.00,Weather View 32 v70,2013-03-03 14:52:00,
2013-03-03 09:57:00,31.9,17.6,28.01,WNW,292,7.0,17.0,55,0.00,,,0.00,Weather View 32 v70,2013-03-03 14:57:00,
2013-03-03 10:02:00,32.3,17.1,28.01,NW,315,6.0,17.0,53,0.00,,,0.00,Weather View 32 v70,2013-03-03 15:02:00,
2013-03-03 10:07:00,32.5,16.8,28.01,NNW,337,8.0,17.0,52,0.00,,,0.00,Weather View 32 v70,2013-03-03 15:07:00,
2013-03-03 10:12:00,32.7,17.4,28.01,NW,315,9.0,17.0,53,0.00,,,0.00,Weather View 32 v70,2013-03-03 15:12:00,
2013-03-03 10:17:00,32.6,17.3,28.00,NW,315,9.0,17.0,53,0.00,,,0.00,Weather View 32 v70,2013-03-03 15:17:00,
2013-03-03 10:22:00,32.5,17.3,28.01,NW,315,6.0,17.0,53,0.00,,,0.00,Weather View 32 v70,2013-03-03 15:22:00,
2013-03-03 10:27:00,32.8,18.0,28.00,NW,315,10.0,17.0,54,0.00,,,0.00,Weather View 32 v70,2013-03-03 15:27:00,
2013-03-03 10:32:00,33.3,17.6,28.00,NW,315,5.0,17.0,52,0.00,,,0.00,Weather View 32 v70,2013-03-03 15:32:00,
2013-03-03 10:37:00,33.8,18.0,28.01,WNW,292,8.0,19.0,52,0.00,,,0.00,Weather View 32 v70,2013-03-03 15:37:00,
2013-03-03 10:42:00,33.9,17.2,28.00,NW,315,7.0,19.0,50,0.00,,,0.00,Weather View 32 v70,2013-03-03 15:42:00,
2013-03-03 10:47:00,33.9,17.2,28.01,North,360,7.0,19.0,50,0.00,,,0.00,Weather View 32 v70,2013-03-03 15:47:00,
2013-03-03 10:52:00,34.4,16.2,28.00,NW,315,4.0,19.0,47,0.00,,,0.00,Weather View 32 v70,2013-03-03 15:52:00,
2013-03-03 10:57:00,34.7,17.5,28.00,NW,315,7.0,19.0,49,0.00,,,0.00,Weather View 32 v70,2013-03-03 15:57:00,
2013-03-03 11:02:00,34.3,16.1,28.00,NW,315,8.0,19.0,47,0.00,,,0.00,Weather View 32 v70,2013-03-03 16:02:00,
2013-03-03 11:07:00,34.1,17.4,28.00,NW,315,11.0,19.0,50,0.00,,,0.00,Weather View 32 v70,2013-03-03 16:07:00,
2013-03-03 11:12:00,34.1,16.4,28.00,NW,315,7.0,19.0,48,0.00,,,0.00,Weather View 32 v70,2013-03-03 16:12:00,
2013-03-03 11:17:00,33.9,17.2,28.00,NNW,337,9.0,19.0,50,0.00,,,0.00,Weather View 32 v70,2013-03-03 16:17:00,
2013-03-03 11:22:00,34.5,17.3,28.00,North,360,11.0,19.0,49,0.00,,,0.01,Weather View 32 v70,2013-03-03 16:22:00,
2013-03-03 11:27:00,34.4,16.2,28.00,NW,315,4.0,19.0,47,0.01,,,0.01,Weather View 32 v70,2013-03-03 16:27:00,
2013-03-03 11:32:00,34.9,17.2,28.00,NW,315,3.0,19.0,48,0.01,,,0.01,Weather View 32 v70,2013-03-03 16:32:00,
2013-03-03 11:37:00,35.6,16.8,28.00,WNW,292,3.0,18.0,46,0.01,,,0.01,Weather View 32 v70,2013-03-03 16:37:00,
2013-03-03 11:42:00,35.9,17.6,28.00,WNW,292,6.0,18.0,47,0.01,,,0.01,Weather View 32 v70,2013-03-03 16:42:00,
2013-03-03 11:47:00,35.9,17.6,27.99,NW,315,5.0,18.0,47,0.01,,,0.01,Weather View 32 v70,2013-03-03 16:47:00,
2013-03-03 11:52:00,36.3,18.0,27.99,NW,315,8.0,18.0,47,0.01,,,0.01,Weather View 32 v70,2013-03-03 16:52:00,
2013-03-03 11:57:00,36.0,16.7,27.99,West,270,1.0,18.0,45,0.01,,,0.01,Weather View 32 v70,2013-03-03 16:57:00,
2013-03-03 12:02:00,35.9,17.6,28.00,North,360,6.0,18.0,47,0.01,,,0.01,Weather View 32 v70,2013-03-03 17:02:00,
2013-03-03 12:07:00,36.9,19.5,27.99,West,270,11.0,18.0,49,0.01,,,0.01,Weather View 32 v70,2013-03-03 17:07:00,
2013-03-03 12:12:00,36.9,20.0,27.99,West,270,5.0,18.0,50,0.01,,,0.01,Weather View 32 v70,2013-03-03 17:12:00,
2013-03-03 12:17:00,37.5,17.5,27.99,East,90,1.0,18.0,44,0.01,,,0.01,Weather View 32 v70,2013-03-03 17:17:00,
2013-03-03 12:22:00,38.1,19.6,27.99,North,360,7.0,15.0,47,0.01,,,0.01,Weather View 32 v70,2013-03-03 17:22:00,
2013-03-03 12:27:00,38.6,19.1,27.99,North,360,6.0,14.0,45,0.00,,,0.01,Weather View 32 v70,2013-03-03 17:27:00,
2013-03-03 12:32:00,39.2,18.6,27.99,WNW,292,4.0,14.0,43,0.00,,,0.01,Weather View 32 v70,2013-03-03 17:32:00,
2013-03-03 12:37:00,39.2,20.1,27.98,NW,315,6.0,14.0,46,0.00,,,0.01,Weather View 32 v70,2013-03-03 17:37:00,
2013-03-03 12:42:00,39.1,19.0,27.98,NW,315,9.0,14.0,44,0.00,,,0.01,Weather View 32 v70,2013-03-03 17:42:00,
2013-03-03 12:47:00,38.5,19.0,27.98,West,270,6.0,14.0,45,0.00,,,0.01,Weather View 32 v70,2013-03-03 17:47:00,
2013-03-03 12:52:00,39.1,19.0,27.98,NE,45,4.0,14.0,44,0.00,,,0.01,Weather View 32 v70,2013-03-03 17:52:00,
2013-03-03 12:57:00,39.7,21.6,27.97,NW,315,7.0,16.0,48,0.00,,,0.01,Weather View 32 v70,2013-03-03 17:57:00,
2013-03-03 13:02:00,39.2,18.6,27.97,NW,315,6.0,16.0,43,0.00,,,0.01,Weather View 32 v70,2013-03-03 18:02:00,
2013-03-03 13:07:00,39.7,22.1,27.97,WNW,292,12.0,16.0,49,0.01,,,0.02,Weather View 32 v70,2013-03-03 18:07:00,
2013-03-03 13:12:00,39.3,19.2,27.97,NW,315,12.0,16.0,44,0.01,,,0.02,Weather View 32 v70,2013-03-03 18:12:00,
2013-03-03 13:17:00,38.2,18.7,27.96,WNW,292,14.0,19.0,45,0.01,,,0.02,Weather View 32 v70,2013-03-03 18:17:00,
2013-03-03 13:22:00,37.4,18.5,27.97,WNW,292,9.0,19.0,46,0.01,,,0.02,Weather View 32 v70,2013-03-03 18:22:00,
2013-03-03 13:27:00,37.4,19.0,27.97,NW,315,11.0,19.0,47,0.01,,,0.02,Weather View 32 v70,2013-03-03 18:27:00,
2013-03-03 13:32:00,37.5,19.1,27.97,NW,315,8.0,19.0,47,0.01,,,0.02,Weather View 32 v70,2013-03-03 18:32:00,
2013-03-03 13:37:00,37.5,19.6,27.97,North,360,12.0,19.0,48,0.01,,,0.02,Weather View 32 v70,2013-03-03 18:37:00,
2013-03-03 13:42:00,37.8,19.4,27.97,NW,315,8.0,19.0,47,0.01,,,0.02,Weather View 32 v70,2013-03-03 18:42:00,
2013-03-03 13:47:00,38.0,20.5,27.97,NW,315,10.0,19.0,49,0.01,,,0.02,Weather View 32 v70,2013-03-03 18:47:00,
2013-03-03 13:52:00,37.8,19.4,27.96,NW,315,16.0,19.0,47,0.01,,,0.02,Weather View 32 v70,2013-03-03 18:52:00,
2013-03-03 13:57:00,37.7,19.3,27.96,NW,315,12.0,19.0,47,0.01,,,0.02,Weather View 32 v70,2013-03-03 18:57:00,
2013-03-03 14:02:00,38.0,19.5,27.96,NW,315,16.0,19.0,47,0.01,,,0.02,Weather View 32 v70,2013-03-03 19:02:00,
2013-03-03 14:07:00,37.6,18.7,27.96,NW,315,10.0,19.0,46,0.00,,,0.02,Weather View 32 v70,2013-03-03 19:07:00,
2013-03-03 14:12:00,37.3,18.4,27.97,WNW,292,8.0,19.0,46,0.00,,,0.02,Weather View 32 v70,2013-03-03 19:12:00,
2013-03-03 14:17:00,37.1,18.7,27.97,West,270,5.0,18.0,47,0.00,,,0.02,Weather View 32 v70,2013-03-03 19:17:00,
2013-03-03 14:22:00,37.3,19.9,27.97,NW,315,6.0,17.0,49,0.00,,,0.02,Weather View 32 v70,2013-03-03 19:22:00,
2013-03-03 14:27:00,37.0,19.1,27.97,NW,315,11.0,17.0,48,0.00,,,0.02,Weather View 32 v70,2013-03-03 19:27:00,
2013-03-03 14:32:00,36.1,18.8,27.97,NW,315,12.0,17.0,49,0.01,,,0.03,Weather View 32 v70,2013-03-03 19:32:00,
2013-03-03 14:37:00,35.7,18.4,27.97,NW,315,7.0,17.0,49,0.01,,,0.03,Weather View 32 v70,2013-03-03 19:37:00,
2013-03-03 14:42:00,36.3,18.5,27.96,WNW,292,12.0,17.0,48,0.01,,,0.03,Weather View 32 v70,2013-03-03 19:42:00,
2013-03-03 14:47:00,36.6,20.6,27.97,NW,315,9.0,17.0,52,0.01,,,0.03,Weather View 32 v70,2013-03-03 19:47:00,
2013-03-03 14:52:00,35.9,18.1,27.96,NW,315,14.0,17.0,48,0.01,,,0.03,Weather View 32 v70,2013-03-03 19:52:00,
2013-03-03 14:57:00,36.4,20.9,27.97,NW,315,9.0,18.0,53,0.01,,,0.03,Weather View 32 v70,2013-03-03 19:57:00,
2013-03-03 15:02:00,37.2,18.3,27.97,WNW,292,13.0,18.0,46,0.01,,,0.03,Weather View 32 v70,2013-03-03 20:02:00,
2013-03-03 15:07:00,36.8,19.4,27.97,NW,315,11.0,18.0,49,0.01,,,0.03,Weather View 32 v70,2013-03-03 20:07:00,
2013-03-03 15:12:00,36.1,18.8,27.98,NW,315,15.0,18.0,49,0.01,,,0.03,Weather View 32 v70,2013-03-03 20:12:00,
2013-03-03 15:17:00,35.5,18.2,27.98,NW,315,9.0,18.0,49,0.01,,,0.03,Weather View 32 v70,2013-03-03 20:17:00,
2013-03-03 15:22:00,35.5,19.1,27.98,WNW,292,13.0,18.0,51,0.01,,,0.03,Weather View 32 v70,2013-03-03 20:22:00,
2013-03-03 15:27:00,35.1,19.2,27.98,NW,315,15.0,19.0,52,0.01,,,0.03,Weather View 32 v70,2013-03-03 20:27:00,
2013-03-03 15:32:00,35.6,19.2,27.98,NW,315,14.0,19.0,51,0.00,,,0.03,Weather View 32 v70,2013-03-03 20:32:00,
2013-03-03 15:37:00,35.3,18.5,27.98,NW,315,18.0,22.0,50,0.00,,,0.03,Weather View 32 v70,2013-03-03 20:37:00,
2013-03-03 15:42:00,34.9,19.5,27.98,NW,315,18.0,22.0,53,0.00,,,0.03,Weather View 32 v70,2013-03-03 20:42:00,
2013-03-03 15:47:00,34.7,17.5,27.98,NW,315,7.0,22.0,49,0.00,,,0.03,Weather View 32 v70,2013-03-03 20:47:00,
2013-03-03 15:52:00,34.8,18.0,27.98,NNW,337,12.0,22.0,50,0.00,,,0.03,Weather View 32 v70,2013-03-03 20:52:00,
2013-03-03 15:57:00,34.5,17.3,27.98,NNW,337,12.0,22.0,49,0.00,,,0.03,Weather View 32 v70,2013-03-03 20:57:00,
2013-03-03 16:02:00,34.3,18.0,27.98,NW,315,12.0,22.0,51,0.00,,,0.03,Weather View 32 v70,2013-03-03 21:02:00,
2013-03-03 16:08:00,33.9,17.2,27.98,NNW,337,16.0,22.0,50,0.00,,,0.03,Weather View 32 v70,2013-03-03 21:08:00,
2013-03-03 16:13:00,33.8,18.5,27.98,NW,315,12.0,22.0,53,0.00,,,0.03,Weather View 32 v70,2013-03-03 21:13:00,
2013-03-03 16:18:00,33.7,17.5,27.98,NW,315,17.0,22.0,51,0.00,,,0.03,Weather View 32 v70,2013-03-03 21:18:00,
2013-03-03 16:23:00,33.4,16.7,27.99,NW,315,14.0,22.0,50,0.00,,,0.03,Weather View 32 v70,2013-03-03 21:23:00,
2013-03-03 16:28:00,33.4,16.7,27.99,NW,315,7.0,22.0,50,0.00,,,0.03,Weather View 32 v70,2013-03-03 21:28:00,
2013-03-03 16:33:00,33.3,16.6,27.99,NW,315,14.0,22.0,50,0.00,,,0.03,Weather View 32 v70,2013-03-03 21:33:00,
2013-03-03 16:38:00,33.0,15.9,27.99,NW,315,9.0,22.0,49,0.00,,,0.03,Weather View 32 v70,2013-03-03 21:38:00,
2013-03-03 16:43:00,32.9,16.3,27.99,WNW,292,8.0,22.0,50,0.00,,,0.03,Weather View 32 v70,2013-03-03 21:43:00,
2013-03-03 16:48:00,32.7,16.1,27.99,NW,315,7.0,22.0,50,0.00,,,0.03,Weather View 32 v70,2013-03-03 21:48:00,
2013-03-03 16:53:00,32.7,16.6,27.99,NW,315,11.0,22.0,51,0.00,,,0.03,Weather View 32 v70,2013-03-03 21:53:00,
2013-03-03 16:58:00,32.7,16.1,27.99,NW,315,7.0,22.0,50,0.00,,,0.03,Weather View 32 v70,2013-03-03 21:58:00,
2013-03-03 17:03:00,32.5,16.8,27.99,North,360,13.0,22.0,52,0.00,,,0.03,Weather View 32 v70,2013-03-03 22:03:00,
2013-03-03 17:08:00,32.3,16.2,28.00,NNW,337,6.0,22.0,51,0.00,,,0.03,Weather View 32 v70,2013-03-03 22:08:00,
2013-03-03 17:13:00,32.2,16.1,28.00,WNW,292,7.0,22.0,51,0.00,,,0.03,Weather View 32 v70,2013-03-03 22:13:00,
2013-03-03 17:18:00,31.9,15.8,28.00,WNW,292,11.0,22.0,51,0.00,,,0.03,Weather View 32 v70,2013-03-03 22:18:00,
2013-03-03 17:23:00,31.6,16.4,28.00,WNW,292,7.0,22.0,53,0.00,,,0.03,Weather View 32 v70,2013-03-03 22:23:00,
2013-03-03 17:28:00,31.2,16.5,28.00,NW,315,10.0,22.0,54,0.00,,,0.03,Weather View 32 v70,2013-03-03 22:28:00,
2013-03-03 17:33:00,30.9,15.8,28.00,NW,315,14.0,22.0,53,0.00,,,0.03,Weather View 32 v70,2013-03-03 22:33:00,
2013-03-03 17:38:00,30.7,16.0,28.01,NW,315,13.0,22.0,54,0.00,,,0.03,Weather View 32 v70,2013-03-03 22:38:00,
2013-03-03 17:43:00,30.4,15.7,28.00,NW,315,14.0,22.0,54,0.00,,,0.03,Weather View 32 v70,2013-03-03 22:43:00,
2013-03-03 17:48:00,30.1,15.9,28.01,NW,315,8.0,22.0,55,0.00,,,0.03,Weather View 32 v70,2013-03-03 22:48:00,
2013-03-03 17:53:00,29.6,15.4,28.01,NW,315,9.0,22.0,55,0.00,,,0.03,Weather View 32 v70,2013-03-03 22:53:00,
2013-03-03 17:58:00,29.1,15.4,28.01,NW,315,9.0,22.0,56,0.00,,,0.03,Weather View 32 v70,2013-03-03 22:58:00,
2013-03-03 18:03:00,28.9,15.2,28.01,NW,315,7.0,20.0,56,0.00,,,0.03,Weather View 32 v70,2013-03-03 23:03:00,
2013-03-03 18:08:00,28.5,15.2,28.01,NW,315,13.0,19.0,57,0.00,,,0.03,Weather View 32 v70,2013-03-03 23:08:00,
2013-03-03 18:13:00,28.4,15.1,28.02,NW,315,12.0,19.0,57,0.00,,,0.03,Weather View 32 v70,2013-03-03 23:13:00,
2013-03-03 18:18:00,28.1,14.4,28.02,NW,315,6.0,19.0,56,0.00,,,0.03,Weather View 32 v70,2013-03-03 23:18:00,
2013-03-03 18:23:00,27.9,14.6,28.02,NW,315,6.0,19.0,57,0.00,,,0.03,Weather View 32 v70,2013-03-03 23:23:00,
2013-03-03 18:28:00,27.7,14.8,28.02,NW,315,11.0,19.0,58,0.00,,,0.03,Weather View 32 v70,2013-03-03 23:28:00,
2013-03-03 18:33:00,27.6,14.7,28.02,West,270,4.0,19.0,58,0.00,,,0.03,Weather View 32 v70,2013-03-03 23:33:00,
2013-03-03 18:38:00,27.3,14.5,28.02,NW,315,6.0,19.0,58,0.00,,,0.03,Weather View 32 v70,2013-03-03 23:38:00,
2013-03-03 18:43:00,27.2,14.4,28.02,NW,315,7.0,19.0,58,0.00,,,0.03,Weather View 32 v70,2013-03-03 23:43:00,
2013-03-03 18:48:00,27.1,14.7,28.02,WNW,292,4.0,19.0,59,0.00,,,0.03,Weather View 32 v70,2013-03-03 23:48:00,
2013-03-03 18:53:00,26.9,14.5,28.03,NW,315,4.0,19.0,59,0.00,,,0.03,Weather View 32 v70,2013-03-03 23:53:00,
2013-03-03 18:58:00,26.5,14.1,28.03,NW,315,6.0,19.0,59,0.00,,,0.03,Weather View 32 v70,2013-03-03 23:58:00,
2013-03-03 19:03:00,26.4,14.0,28.04,NW,315,4.0,19.0,59,0.00,,,0.03,Weather View 32 v70,2013-03-04 00:03:00,
2013-03-03 19:08:00,26.5,13.7,28.03,NW,315,5.0,15.0,58,0.00,,,0.03,Weather View 32 v70,2013-03-04 00:08:00,
2013-03-03 19:13:00,26.3,13.1,28.04,NNW,337,9.0,15.0,57,0.00,,,0.03,Weather View 32 v70,2013-03-04 00:13:00,
2013-03-03 19:18:00,26.2,13.8,28.05,NW,315,4.0,15.0,59,0.00,,,0.03,Weather View 32 v70,2013-03-04 00:18:00,
2013-03-03 19:23:00,25.9,13.1,28.04,NNW,337,6.0,15.0,58,0.00,,,0.03,Weather View 32 v70,2013-03-04 00:23:00,
2013-03-03 19:28:00,25.8,13.1,28.05,West,270,6.0,15.0,58,0.00,,,0.03,Weather View 32 v70,2013-03-04 00:28:00,
2013-03-03 19:33:00,25.7,13.0,28.05,NW,315,4.0,15.0,58,0.00,,,0.03,Weather View 32 v70,2013-03-04 00:33:00,
2013-03-03 19:38:00,25.5,13.2,28.05,NW,315,2.0,15.0,59,0.00,,,0.03,Weather View 32 v70,2013-03-04 00:38:00,
2013-03-03 19:43:00,25.2,12.9,28.05,NW,315,3.0,15.0,59,0.00,,,0.03,Weather View 32 v70,2013-03-04 00:43:00,
2013-03-03 19:48:00,24.9,13.0,28.05,NW,315,3.0,15.0,60,0.00,,,0.03,Weather View 32 v70,2013-03-04 00:48:00,
2013-03-03 19:53:00,24.7,12.8,28.05,NW,315,2.0,15.0,60,0.00,,,0.03,Weather View 32 v70,2013-03-04 00:53:00,
2013-03-03 19:58:00,24.6,12.3,28.05,NNW,337,7.0,15.0,59,0.00,,,0.03,Weather View 32 v70,2013-03-04 00:58:00,
2013-03-03 20:03:00,24.8,12.9,28.05,NW,315,3.0,15.0,60,0.00,,,0.03,Weather View 32 v70,2013-03-04 01:03:00,
2013-03-03 20:08:00,24.7,12.8,28.05,NW,315,3.0,15.0,60,0.00,,,0.03,Weather View 32 v70,2013-03-04 01:08:00,
2013-03-03 20:13:00,24.4,12.9,28.05,NNW,337,3.0,12.0,61,0.00,,,0.03,Weather View 32 v70,2013-03-04 01:13:00,
2013-03-03 20:18:00,24.5,13.7,28.05,NNW,337,2.0,11.0,63,0.00,,,0.03,Weather View 32 v70,2013-03-04 01:18:00,
2013-03-03 20:23:00,24.2,12.7,28.05,NNW,337,2.0,10.0,61,0.00,,,0.03,Weather View 32 v70,2013-03-04 01:23:00,
2013-03-03 20:29:00,23.9,12.8,28.05,NW,315,1.0,10.0,62,0.00,,,0.03,Weather View 32 v70,2013-03-04 01:29:00,
2013-03-03 20:34:00,23.7,12.6,28.05,NW,315,6.0,10.0,62,0.00,,,0.03,Weather View 32 v70,2013-03-04 01:34:00,
2013-03-03 20:39:00,23.9,12.8,28.05,WNW,292,2.0,10.0,62,0.00,,,0.03,Weather View 32 v70,2013-03-04 01:39:00,
2013-03-03 20:44:00,23.8,12.7,28.06,WNW,292,0.0,10.0,62,0.00,,,0.03,Weather View 32 v70,2013-03-04 01:44:00,
2013-03-03 20:49:00,23.4,12.7,28.06,WNW,292,0.0,10.0,63,0.00,,,0.03,Weather View 32 v70,2013-03-04 01:49:00,
2013-03-03 20:54:00,23.2,12.5,28.06,WNW,292,0.0,10.0,63,0.00,,,0.03,Weather View 32 v70,2013-03-04 01:54:00,
2013-03-03 20:59:00,22.9,12.2,28.06,WSW,247,2.0,10.0,63,0.00,,,0.03,Weather View 32 v70,2013-03-04 01:59:00,
2013-03-03 21:04:00,23.3,12.2,28.06,NNW,337,4.0,8.0,62,0.00,,,0.03,Weather View 32 v70,2013-03-04 02:04:00,
2013-03-03 21:09:00,23.5,12.8,28.06,NNW,337,6.0,9.0,63,0.00,,,0.03,Weather View 32 v70,2013-03-04 02:09:00,
2013-03-03 21:14:00,23.5,12.0,28.06,NW,315,4.0,9.0,61,0.00,,,0.03,Weather View 32 v70,2013-03-04 02:14:00,
2013-03-03 21:19:00,23.8,11.9,28.06,North,360,12.0,12.0,60,0.00,,,0.03,Weather View 32 v70,2013-03-04 02:19:00,
2013-03-03 21:24:00,23.9,11.7,28.07,NW,315,5.0,16.0,59,0.00,,,0.03,Weather View 32 v70,2013-03-04 02:24:00,
2013-03-03 21:29:00,23.9,12.0,28.07,WNW,292,3.0,16.0,60,0.00,,,0.03,Weather View 32 v70,2013-03-04 02:29:00,
2013-03-03 21:34:00,23.5,11.7,28.07,NW,315,2.0,16.0,60,0.00,,,0.03,Weather View 32 v70,2013-03-04 02:34:00,
2013-03-03 21:39:00,23.4,11.9,28.07,NW,315,7.0,16.0,61,0.00,,,0.03,Weather View 32 v70,2013-03-04 02:39:00,
2013-03-03 21:44:00,23.5,11.7,28.07,NW,315,4.0,16.0,60,0.00,,,0.03,Weather View 32 v70,2013-03-04 02:44:00,
2013-03-03 21:49:00,23.5,11.7,28.07,NW,315,2.0,16.0,60,0.00,,,0.03,Weather View 32 v70,2013-03-04 02:49:00,
2013-03-03 21:54:00,23.3,11.5,28.07,NW,315,2.0,16.0,60,0.00,,,0.03,Weather View 32 v70,2013-03-04 02:54:00,
2013-03-03 21:59:00,23.1,11.3,28.07,NW,315,2.0,16.0,60,0.00,,,0.03,Weather View 32 v70,2013-03-04 02:59:00,
2013-03-03 22:04:00,22.9,12.2,28.07,NW,315,4.0,16.0,63,0.00,,,0.03,Weather View 32 v70,2013-03-04 03:04:00,
2013-03-03 22:09:00,22.7,11.6,28.07,WNW,292,3.0,16.0,62,0.00,,,0.03,Weather View 32 v70,2013-03-04 03:09:00,
2013-03-03 22:14:00,22.9,11.8,28.07,NNW,337,6.0,16.0,62,0.00,,,0.03,Weather View 32 v70,2013-03-04 03:14:00,
2013-03-03 22:19:00,23.0,11.9,28.07,WNW,292,7.0,16.0,62,0.00,,,0.03,Weather View 32 v70,2013-03-04 03:19:00,
2013-03-03 22:24:00,23.1,12.0,28.08,NW,315,6.0,13.0,62,0.00,,,0.03,Weather View 32 v70,2013-03-04 03:24:00,
2013-03-03 22:29:00,23.1,12.0,28.08,WNW,292,6.0,13.0,62,0.00,,,0.03,Weather View 32 v70,2013-03-04 03:29:00,
2013-03-03 22:34:00,22.9,12.2,28.08,NW,315,9.0,13.0,63,0.00,,,0.03,Weather View 32 v70,2013-03-04 03:34:00,
2013-03-03 22:39:00,22.9,11.8,28.08,NW,315,6.0,11.0,62,0.00,,,0.03,Weather View 32 v70,2013-03-04 03:39:00,
2013-03-03 22:44:00,22.9,12.2,28.08,WNW,292,4.0,11.0,63,0.00,,,0.03,Weather View 32 v70,2013-03-04 03:44:00,
2013-03-03 22:49:00,22.7,12.0,28.07,NW,315,6.0,11.0,63,0.00,,,0.03,Weather View 32 v70,2013-03-04 03:49:00,
2013-03-03 22:54:00,22.3,12.0,28.08,NW,315,2.0,11.0,64,0.00,,,0.03,Weather View 32 v70,2013-03-04 03:54:00,
2013-03-03 22:59:00,22.2,11.5,28.08,NW,315,2.0,11.0,63,0.00,,,0.03,Weather View 32 v70,2013-03-04 03:59:00,
2013-03-03 23:05:00,22.2,11.5,28.08,NW,315,3.0,11.0,63,0.00,,,0.03,Weather View 32 v70,2013-03-04 04:05:00,
2013-03-03 23:10:00,22.1,11.4,28.08,NW,315,2.0,11.0,63,0.00,,,0.03,Weather View 32 v70,2013-03-04 04:10:00,
2013-03-03 23:15:00,21.9,12.3,28.08,WNW,292,4.0,11.0,66,0.00,,,0.03,Weather View 32 v70,2013-03-04 04:15:00,
2013-03-03 23:20:00,21.9,11.9,28.08,WNW,292,2.0,11.0,65,0.00,,,0.03,Weather View 32 v70,2013-03-04 04:20:00,
2013-03-03 23:25:00,21.9,11.9,28.08,NW,315,2.0,11.0,65,0.00,,,0.03,Weather View 32 v70,2013-03-04 04:25:00,
2013-03-03 23:30:00,21.8,12.9,28.08,NNW,337,3.0,11.0,68,0.00,,,0.03,Weather View 32 v70,2013-03-04 04:30:00,
2013-03-03 23:35:00,22.1,11.4,28.08,North,360,7.0,10.0,63,0.00,,,0.03,Weather View 32 v70,2013-03-04 04:35:00,
2013-03-03 23:40:00,22.1,12.5,28.08,NNW,337,3.0,9.0,66,0.00,,,0.03,Weather View 32 v70,2013-03-04 04:40:00,
2013-03-03 23:45:00,21.9,11.9,28.09,NW,315,2.0,9.0,65,0.00,,,0.03,Weather View 32 v70,2013-03-04 04:45:00,
2013-03-03 23:50:00,21.9,12.3,28.08,NW,315,4.0,9.0,66,0.00,,,0.03,Weather View 32 v70,2013-03-04 04:50:00,
2013-03-03 23:55:00,21.7,11.8,28.08,NNW,337,4.0,9.0,65,0.00,,,0.03,Weather View 32 v70,2013-03-04 04:55:00,